sensor_id;sensor_type;location;lat;lon;timestamp;P1;durP1;ratioP1;P2;durP2;ratioP2
20140;SDS011;10231;47.702;9.826;2023-08-21T00:00:02;7.37;;;6.77;;
20140;SDS011;10231;47.702;9.826;2023-08-21T00:02:29;7.87;;;7.03;;
20140;SDS011;10231;47.702;9.826;2023-08-21T00:04:55;8.50;;;7.70;;
20140;SDS011;10231;47.702;9.826;2023-08-21T00:07:20;9.60;;;7.50;;
20140;SDS011;10231;47.702;9.826;2023-08-21T00:09:46;8.33;;;7.37;;
20140;SDS011;10231;47.702;9.826;2023-08-21T00:12:11;7.77;;;7.07;;
20140;SDS011;10231;47.702;9.826;2023-08-21T00:14:37;10.20;;;7.40;;
20140;SDS011;10231;47.702;9.826;2023-08-21T00:17:03;9.37;;;8.33;;
20140;SDS011;10231;47.702;9.826;2023-08-21T00:19:29;8.53;;;7.63;;
20140;SDS011;10231;47.702;9.826;2023-08-21T00:21:54;10.07;;;7.13;;
20140;SDS011;10231;47.702;9.826;2023-08-21T00:24:20;8.57;;;7.40;;
20140;SDS011;10231;47.702;9.826;2023-08-21T00:26:46;7.70;;;6.93;;
20140;SDS011;10231;47.702;9.826;2023-08-21T00:29:11;7.77;;;6.90;;
20140;SDS011;10231;47.702;9.826;2023-08-21T00:31:37;7.97;;;7.17;;
20140;SDS011;10231;47.702;9.826;2023-08-21T00:34:02;8.77;;;7.70;;
20140;SDS011;10231;47.702;9.826;2023-08-21T00:36:28;10.70;;;7.90;;
20140;SDS011;10231;47.702;9.826;2023-08-21T00:38:53;8.83;;;8.03;;
20140;SDS011;10231;47.702;9.826;2023-08-21T00:41:19;8.73;;;8.00;;
20140;SDS011;10231;47.702;9.826;2023-08-21T00:43:45;7.47;;;6.87;;
20140;SDS011;10231;47.702;9.826;2023-08-21T00:46:10;7.87;;;6.80;;
20140;SDS011;10231;47.702;9.826;2023-08-21T00:48:36;8.27;;;7.57;;
20140;SDS011;10231;47.702;9.826;2023-08-21T00:51:03;8.43;;;7.70;;
20140;SDS011;10231;47.702;9.826;2023-08-21T00:53:29;10.17;;;8.07;;
20140;SDS011;10231;47.702;9.826;2023-08-21T00:55:55;9.17;;;8.37;;
20140;SDS011;10231;47.702;9.826;2023-08-21T00:58:20;8.87;;;7.90;;
20140;SDS011;10231;47.702;9.826;2023-08-21T01:00:46;9.43;;;8.33;;
20140;SDS011;10231;47.702;9.826;2023-08-21T01:03:15;8.10;;;7.30;;
20140;SDS011;10231;47.702;9.826;2023-08-21T01:05:40;10.13;;;7.80;;
20140;SDS011;10231;47.702;9.826;2023-08-21T01:08:07;8.40;;;7.60;;
20140;SDS011;10231;47.702;9.826;2023-08-21T01:16:41;8.37;;;7.17;;
20140;SDS011;10231;47.702;9.826;2023-08-21T01:22:05;8.60;;;7.70;;
20140;SDS011;10231;47.702;9.826;2023-08-21T01:24:31;8.27;;;7.50;;
20140;SDS011;10231;47.702;9.826;2023-08-21T01:26:56;8.37;;;7.20;;
20140;SDS011;10231;47.702;9.826;2023-08-21T01:29:22;8.20;;;7.40;;
20140;SDS011;10231;47.702;9.826;2023-08-21T01:31:58;9.03;;;8.13;;
20140;SDS011;10231;47.702;9.826;2023-08-21T01:34:44;8.03;;;7.37;;
20140;SDS011;10231;47.702;9.826;2023-08-21T01:37:12;8.63;;;7.83;;
20140;SDS011;10231;47.702;9.826;2023-08-21T01:39:38;8.70;;;7.83;;
20140;SDS011;10231;47.702;9.826;2023-08-21T01:42:04;12.07;;;7.80;;
20140;SDS011;10231;47.702;9.826;2023-08-21T01:44:30;8.40;;;7.60;;
20140;SDS011;10231;47.702;9.826;2023-08-21T01:46:55;8.00;;;7.20;;
20140;SDS011;10231;47.702;9.826;2023-08-21T01:49:21;8.87;;;8.00;;
20140;SDS011;10231;47.702;9.826;2023-08-21T01:51:46;8.27;;;7.40;;
20140;SDS011;10231;47.702;9.826;2023-08-21T01:54:12;8.23;;;7.47;;
20140;SDS011;10231;47.702;9.826;2023-08-21T01:56:38;7.73;;;6.93;;
20140;SDS011;10231;47.702;9.826;2023-08-21T01:59:06;9.30;;;7.47;;
20140;SDS011;10231;47.702;9.826;2023-08-21T02:01:32;8.63;;;7.63;;
20140;SDS011;10231;47.702;9.826;2023-08-21T02:03:58;9.57;;;7.30;;
20140;SDS011;10231;47.702;9.826;2023-08-21T02:06:24;9.63;;;7.83;;
20140;SDS011;10231;47.702;9.826;2023-08-21T02:08:49;11.37;;;8.17;;
20140;SDS011;10231;47.702;9.826;2023-08-21T02:11:15;8.27;;;7.30;;
20140;SDS011;10231;47.702;9.826;2023-08-21T02:13:41;7.63;;;6.87;;
20140;SDS011;10231;47.702;9.826;2023-08-21T02:16:06;9.37;;;7.83;;
20140;SDS011;10231;47.702;9.826;2023-08-21T02:18:32;7.50;;;6.80;;
20140;SDS011;10231;47.702;9.826;2023-08-21T02:21:00;7.70;;;7.00;;
20140;SDS011;10231;47.702;9.826;2023-08-21T02:23:26;9.30;;;7.70;;
20140;SDS011;10231;47.702;9.826;2023-08-21T02:25:53;8.47;;;7.63;;
20140;SDS011;10231;47.702;9.826;2023-08-21T02:28:18;7.63;;;7.00;;
20140;SDS011;10231;47.702;9.826;2023-08-21T02:30:44;8.67;;;7.80;;
20140;SDS011;10231;47.702;9.826;2023-08-21T02:33:10;7.57;;;6.83;;
20140;SDS011;10231;47.702;9.826;2023-08-21T02:35:36;8.70;;;7.97;;
20140;SDS011;10231;47.702;9.826;2023-08-21T02:38:01;8.87;;;7.97;;
20140;SDS011;10231;47.702;9.826;2023-08-21T02:40:27;8.57;;;7.77;;
20140;SDS011;10231;47.702;9.826;2023-08-21T02:42:53;9.10;;;8.20;;
20140;SDS011;10231;47.702;9.826;2023-08-21T02:45:18;8.50;;;7.80;;
20140;SDS011;10231;47.702;9.826;2023-08-21T02:47:44;8.30;;;7.60;;
20140;SDS011;10231;47.702;9.826;2023-08-21T02:50:10;8.63;;;7.80;;
20140;SDS011;10231;47.702;9.826;2023-08-21T02:52:36;8.37;;;7.63;;
20140;SDS011;10231;47.702;9.826;2023-08-21T02:55:02;9.07;;;8.10;;
20140;SDS011;10231;47.702;9.826;2023-08-21T02:57:29;10.53;;;7.47;;
20140;SDS011;10231;47.702;9.826;2023-08-21T02:59:54;7.83;;;7.13;;
20140;SDS011;10231;47.702;9.826;2023-08-21T03:02:20;8.53;;;7.37;;
20140;SDS011;10231;47.702;9.826;2023-08-21T03:04:46;7.83;;;7.03;;
20140;SDS011;10231;47.702;9.826;2023-08-21T03:07:12;8.43;;;6.53;;
20140;SDS011;10231;47.702;9.826;2023-08-21T03:09:39;9.90;;;7.23;;
20140;SDS011;10231;47.702;9.826;2023-08-21T03:12:05;7.67;;;6.73;;
20140;SDS011;10231;47.702;9.826;2023-08-21T03:14:31;10.63;;;7.50;;
20140;SDS011;10231;47.702;9.826;2023-08-21T03:16:57;9.00;;;8.17;;
20140;SDS011;10231;47.702;9.826;2023-08-21T03:19:22;7.90;;;7.10;;
20140;SDS011;10231;47.702;9.826;2023-08-21T03:21:48;7.97;;;7.27;;
20140;SDS011;10231;47.702;9.826;2023-08-21T03:24:14;8.67;;;7.80;;
20140;SDS011;10231;47.702;9.826;2023-08-21T03:26:39;9.27;;;7.40;;
20140;SDS011;10231;47.702;9.826;2023-08-21T03:29:05;8.63;;;6.90;;
20140;SDS011;10231;47.702;9.826;2023-08-21T03:31:30;8.00;;;7.20;;
20140;SDS011;10231;47.702;9.826;2023-08-21T03:33:56;9.90;;;7.40;;
20140;SDS011;10231;47.702;9.826;2023-08-21T03:36:22;7.73;;;7.03;;
20140;SDS011;10231;47.702;9.826;2023-08-21T03:38:56;9.23;;;7.43;;
20140;SDS011;10231;47.702;9.826;2023-08-21T03:41:25;9.83;;;7.20;;
20140;SDS011;10231;47.702;9.826;2023-08-21T03:43:51;7.97;;;7.27;;
20140;SDS011;10231;47.702;9.826;2023-08-21T03:46:16;9.23;;;6.93;;
20140;SDS011;10231;47.702;9.826;2023-08-21T03:48:42;7.77;;;7.03;;
20140;SDS011;10231;47.702;9.826;2023-08-21T03:51:08;7.97;;;7.20;;
20140;SDS011;10231;47.702;9.826;2023-08-21T03:53:34;7.33;;;6.63;;
20140;SDS011;10231;47.702;9.826;2023-08-21T03:55:59;7.53;;;6.80;;
20140;SDS011;10231;47.702;9.826;2023-08-21T03:58:25;7.73;;;7.13;;
20140;SDS011;10231;47.702;9.826;2023-08-21T04:00:51;7.47;;;6.97;;
20140;SDS011;10231;47.702;9.826;2023-08-21T04:03:17;7.90;;;7.17;;
20140;SDS011;10231;47.702;9.826;2023-08-21T04:05:43;9.00;;;6.90;;
20140;SDS011;10231;47.702;9.826;2023-08-21T04:08:09;7.53;;;6.90;;
20140;SDS011;10231;47.702;9.826;2023-08-21T04:10:34;7.53;;;6.93;;
20140;SDS011;10231;47.702;9.826;2023-08-21T04:13:00;7.17;;;6.57;;
20140;SDS011;10231;47.702;9.826;2023-08-21T04:15:26;9.53;;;7.67;;
20140;SDS011;10231;47.702;9.826;2023-08-21T04:17:51;8.27;;;7.37;;
20140;SDS011;10231;47.702;9.826;2023-08-21T04:20:18;9.17;;;7.17;;
20140;SDS011;10231;47.702;9.826;2023-08-21T04:22:45;7.50;;;6.83;;
20140;SDS011;10231;47.702;9.826;2023-08-21T04:25:10;7.70;;;7.03;;
20140;SDS011;10231;47.702;9.826;2023-08-21T04:27:36;8.53;;;7.00;;
20140;SDS011;10231;47.702;9.826;2023-08-21T04:30:02;9.87;;;7.10;;
20140;SDS011;10231;47.702;9.826;2023-08-21T04:32:27;7.80;;;7.03;;
20140;SDS011;10231;47.702;9.826;2023-08-21T04:34:53;8.57;;;7.50;;
20140;SDS011;10231;47.702;9.826;2023-08-21T04:37:19;7.17;;;6.63;;
20140;SDS011;10231;47.702;9.826;2023-08-21T04:39:44;8.73;;;7.23;;
20140;SDS011;10231;47.702;9.826;2023-08-21T04:42:10;8.63;;;7.77;;
20140;SDS011;10231;47.702;9.826;2023-08-21T04:44:36;8.77;;;7.97;;
20140;SDS011;10231;47.702;9.826;2023-08-21T04:47:18;7.87;;;7.07;;
20140;SDS011;10231;47.702;9.826;2023-08-21T04:49:44;7.67;;;6.90;;
20140;SDS011;10231;47.702;9.826;2023-08-21T04:52:10;8.13;;;7.30;;
20140;SDS011;10231;47.702;9.826;2023-08-21T04:54:35;7.80;;;7.00;;
20140;SDS011;10231;47.702;9.826;2023-08-21T04:57:01;9.23;;;6.83;;
20140;SDS011;10231;47.702;9.826;2023-08-21T04:59:26;8.93;;;7.90;;
20140;SDS011;10231;47.702;9.826;2023-08-21T05:01:52;8.13;;;7.40;;
20140;SDS011;10231;47.702;9.826;2023-08-21T05:04:17;7.10;;;6.47;;
20140;SDS011;10231;47.702;9.826;2023-08-21T05:06:43;8.47;;;7.23;;
20140;SDS011;10231;47.702;9.826;2023-08-21T05:09:09;9.00;;;7.10;;
20140;SDS011;10231;47.702;9.826;2023-08-21T05:11:34;10.07;;;7.23;;
20140;SDS011;10231;47.702;9.826;2023-08-21T05:14:00;7.90;;;7.20;;
20140;SDS011;10231;47.702;9.826;2023-08-21T05:16:25;8.13;;;7.10;;
20140;SDS011;10231;47.702;9.826;2023-08-21T05:18:51;9.33;;;7.67;;
20140;SDS011;10231;47.702;9.826;2023-08-21T05:21:16;8.53;;;6.77;;
20140;SDS011;10231;47.702;9.826;2023-08-21T05:23:42;8.13;;;6.90;;
20140;SDS011;10231;47.702;9.826;2023-08-21T05:26:07;8.07;;;6.73;;
20140;SDS011;10231;47.702;9.826;2023-08-21T05:28:33;7.93;;;7.10;;
20140;SDS011;10231;47.702;9.826;2023-08-21T05:30:58;7.20;;;6.63;;
20140;SDS011;10231;47.702;9.826;2023-08-21T05:33:24;8.53;;;7.50;;
20140;SDS011;10231;47.702;9.826;2023-08-21T05:35:49;7.90;;;7.20;;
20140;SDS011;10231;47.702;9.826;2023-08-21T05:38:15;10.23;;;7.17;;
20140;SDS011;10231;47.702;9.826;2023-08-21T05:40:41;7.50;;;6.80;;
20140;SDS011;10231;47.702;9.826;2023-08-21T05:43:09;7.87;;;7.07;;
20140;SDS011;10231;47.702;9.826;2023-08-21T05:45:35;8.83;;;7.00;;
20140;SDS011;10231;47.702;9.826;2023-08-21T05:48:00;10.43;;;7.53;;
20140;SDS011;10231;47.702;9.826;2023-08-21T05:50:26;9.27;;;8.00;;
20140;SDS011;10231;47.702;9.826;2023-08-21T05:52:52;15.13;;;7.73;;
20140;SDS011;10231;47.702;9.826;2023-08-21T05:55:19;10.87;;;7.87;;
20140;SDS011;10231;47.702;9.826;2023-08-21T05:57:45;9.00;;;8.10;;
20140;SDS011;10231;47.702;9.826;2023-08-21T06:00:10;14.43;;;8.93;;
20140;SDS011;10231;47.702;9.826;2023-08-21T06:02:37;8.77;;;7.87;;
20140;SDS011;10231;47.702;9.826;2023-08-21T06:05:02;9.97;;;7.50;;
20140;SDS011;10231;47.702;9.826;2023-08-21T06:07:28;13.40;;;8.60;;
20140;SDS011;10231;47.702;9.826;2023-08-21T06:09:54;11.83;;;7.73;;
20140;SDS011;10231;47.702;9.826;2023-08-21T06:12:19;10.20;;;8.30;;
20140;SDS011;10231;47.702;9.826;2023-08-21T06:14:45;9.20;;;8.17;;
20140;SDS011;10231;47.702;9.826;2023-08-21T06:17:10;11.33;;;7.80;;
20140;SDS011;10231;47.702;9.826;2023-08-21T06:19:36;11.20;;;8.53;;
20140;SDS011;10231;47.702;9.826;2023-08-21T06:22:01;9.03;;;8.10;;
20140;SDS011;10231;47.702;9.826;2023-08-21T06:24:27;8.27;;;7.17;;
20140;SDS011;10231;47.702;9.826;2023-08-21T06:26:53;12.47;;;8.67;;
20140;SDS011;10231;47.702;9.826;2023-08-21T06:29:18;13.37;;;7.97;;
20140;SDS011;10231;47.702;9.826;2023-08-21T06:31:45;8.67;;;7.80;;
20140;SDS011;10231;47.702;9.826;2023-08-21T06:34:11;8.63;;;7.83;;
20140;SDS011;10231;47.702;9.826;2023-08-21T06:36:37;8.53;;;7.07;;
20140;SDS011;10231;47.702;9.826;2023-08-21T06:39:04;7.57;;;6.70;;
20140;SDS011;10231;47.702;9.826;2023-08-21T06:41:30;8.80;;;6.93;;
20140;SDS011;10231;47.702;9.826;2023-08-21T06:43:56;7.60;;;6.90;;
20140;SDS011;10231;47.702;9.826;2023-08-21T06:46:22;7.77;;;7.07;;
20140;SDS011;10231;47.702;9.826;2023-08-21T06:48:48;8.47;;;7.43;;
20140;SDS011;10231;47.702;9.826;2023-08-21T06:51:15;8.10;;;7.30;;
20140;SDS011;10231;47.702;9.826;2023-08-21T06:53:41;9.90;;;7.10;;
20140;SDS011;10231;47.702;9.826;2023-08-21T06:56:06;8.67;;;7.87;;
20140;SDS011;10231;47.702;9.826;2023-08-21T06:58:32;8.60;;;7.70;;
20140;SDS011;10231;47.702;9.826;2023-08-21T07:00:59;8.73;;;7.83;;
20140;SDS011;10231;47.702;9.826;2023-08-21T07:03:25;9.53;;;8.33;;
20140;SDS011;10231;47.702;9.826;2023-08-21T07:05:54;9.57;;;8.00;;
20140;SDS011;10231;47.702;9.826;2023-08-21T07:08:23;9.13;;;8.33;;
20140;SDS011;10231;47.702;9.826;2023-08-21T07:10:49;8.43;;;7.63;;
20140;SDS011;10231;47.702;9.826;2023-08-21T07:13:15;11.80;;;8.77;;
20140;SDS011;10231;47.702;9.826;2023-08-21T07:15:41;8.97;;;8.17;;
20140;SDS011;10231;47.702;9.826;2023-08-21T07:18:07;9.33;;;8.53;;
20140;SDS011;10231;47.702;9.826;2023-08-21T07:20:33;9.70;;;8.80;;
20140;SDS011;10231;47.702;9.826;2023-08-21T07:22:58;9.50;;;8.70;;
20140;SDS011;10231;47.702;9.826;2023-08-21T07:25:24;9.67;;;8.63;;
20140;SDS011;10231;47.702;9.826;2023-08-21T07:27:50;9.40;;;8.40;;
20140;SDS011;10231;47.702;9.826;2023-08-21T07:30:18;9.70;;;8.80;;
20140;SDS011;10231;47.702;9.826;2023-08-21T07:32:44;11.13;;;9.20;;
20140;SDS011;10231;47.702;9.826;2023-08-21T07:35:10;9.87;;;9.07;;
20140;SDS011;10231;47.702;9.826;2023-08-21T07:37:36;10.43;;;9.03;;
20140;SDS011;10231;47.702;9.826;2023-08-21T07:40:01;13.57;;;9.13;;
20140;SDS011;10231;47.702;9.826;2023-08-21T07:42:27;10.37;;;9.27;;
20140;SDS011;10231;47.702;9.826;2023-08-21T07:44:53;9.43;;;8.43;;
20140;SDS011;10231;47.702;9.826;2023-08-21T07:47:18;9.20;;;8.30;;
20140;SDS011;10231;47.702;9.826;2023-08-21T07:49:44;8.93;;;8.00;;
20140;SDS011;10231;47.702;9.826;2023-08-21T07:52:09;9.60;;;8.10;;
20140;SDS011;10231;47.702;9.826;2023-08-21T07:54:35;8.50;;;7.70;;
20140;SDS011;10231;47.702;9.826;2023-08-21T07:57:01;10.20;;;7.97;;
20140;SDS011;10231;47.702;9.826;2023-08-21T07:59:28;8.90;;;8.00;;
20140;SDS011;10231;47.702;9.826;2023-08-21T08:01:54;10.40;;;7.77;;
20140;SDS011;10231;47.702;9.826;2023-08-21T08:04:20;8.57;;;7.77;;
20140;SDS011;10231;47.702;9.826;2023-08-21T08:06:46;9.67;;;7.77;;
20140;SDS011;10231;47.702;9.826;2023-08-21T08:09:11;9.30;;;8.47;;
20140;SDS011;10231;47.702;9.826;2023-08-21T08:11:37;9.37;;;8.20;;
20140;SDS011;10231;47.702;9.826;2023-08-21T08:14:03;9.33;;;8.10;;
20140;SDS011;10231;47.702;9.826;2023-08-21T08:16:28;10.47;;;8.80;;
20140;SDS011;10231;47.702;9.826;2023-08-21T08:18:54;8.63;;;7.80;;
20140;SDS011;10231;47.702;9.826;2023-08-21T08:21:19;9.60;;;8.70;;
20140;SDS011;10231;47.702;9.826;2023-08-21T08:23:45;9.80;;;8.60;;
20140;SDS011;10231;47.702;9.826;2023-08-21T08:26:10;9.93;;;8.97;;
20140;SDS011;10231;47.702;9.826;2023-08-21T08:28:36;10.13;;;9.07;;
20140;SDS011;10231;47.702;9.826;2023-08-21T08:31:02;9.70;;;8.10;;
20140;SDS011;10231;47.702;9.826;2023-08-21T08:33:27;8.50;;;7.80;;
20140;SDS011;10231;47.702;9.826;2023-08-21T08:35:53;9.40;;;8.10;;
20140;SDS011;10231;47.702;9.826;2023-08-21T08:38:18;9.03;;;8.03;;
20140;SDS011;10231;47.702;9.826;2023-08-21T08:40:44;9.87;;;8.80;;
20140;SDS011;10231;47.702;9.826;2023-08-21T08:43:12;10.20;;;8.83;;
20140;SDS011;10231;47.702;9.826;2023-08-21T08:45:38;10.30;;;8.47;;
20140;SDS011;10231;47.702;9.826;2023-08-21T08:48:05;9.80;;;8.47;;
20140;SDS011;10231;47.702;9.826;2023-08-21T08:50:32;10.97;;;8.17;;
20140;SDS011;10231;47.702;9.826;2023-08-21T08:52:59;9.07;;;8.17;;
20140;SDS011;10231;47.702;9.826;2023-08-21T08:55:25;9.80;;;8.87;;
20140;SDS011;10231;47.702;9.826;2023-08-21T08:57:52;11.60;;;8.57;;
20140;SDS011;10231;47.702;9.826;2023-08-21T09:00:18;15.30;;;8.40;;
20140;SDS011;10231;47.702;9.826;2023-08-21T09:02:45;10.13;;;9.00;;
20140;SDS011;10231;47.702;9.826;2023-08-21T09:05:11;11.67;;;9.00;;
20140;SDS011;10231;47.702;9.826;2023-08-21T09:07:37;10.47;;;9.47;;
20140;SDS011;10231;47.702;9.826;2023-08-21T09:10:03;10.17;;;9.17;;
20140;SDS011;10231;47.702;9.826;2023-08-21T09:12:33;10.57;;;9.57;;
20140;SDS011;10231;47.702;9.826;2023-08-21T09:14:58;13.90;;;11.23;;
20140;SDS011;10231;47.702;9.826;2023-08-21T09:17:25;10.47;;;9.43;;
20140;SDS011;10231;47.702;9.826;2023-08-21T09:19:51;11.00;;;10.13;;
20140;SDS011;10231;47.702;9.826;2023-08-21T09:22:17;14.27;;;10.23;;
20140;SDS011;10231;47.702;9.826;2023-08-21T09:25:03;11.73;;;10.23;;
20140;SDS011;10231;47.702;9.826;2023-08-21T09:27:31;11.50;;;10.33;;
20140;SDS011;10231;47.702;9.826;2023-08-21T09:30:03;10.90;;;10.00;;
20140;SDS011;10231;47.702;9.826;2023-08-21T09:32:29;11.70;;;10.60;;
20140;SDS011;10231;47.702;9.826;2023-08-21T09:34:55;11.77;;;10.50;;
20140;SDS011;10231;47.702;9.826;2023-08-21T09:37:21;13.73;;;11.50;;
20140;SDS011;10231;47.702;9.826;2023-08-21T09:39:54;14.73;;;10.63;;
20140;SDS011;10231;47.702;9.826;2023-08-21T09:42:26;13.47;;;11.07;;
20140;SDS011;10231;47.702;9.826;2023-08-21T09:44:51;11.63;;;10.43;;
20140;SDS011;10231;47.702;9.826;2023-08-21T09:47:17;12.03;;;10.93;;
20140;SDS011;10231;47.702;9.826;2023-08-21T09:49:44;11.17;;;10.07;;
20140;SDS011;10231;47.702;9.826;2023-08-21T09:52:10;12.37;;;10.97;;
20140;SDS011;10231;47.702;9.826;2023-08-21T09:54:37;13.60;;;10.97;;
20140;SDS011;10231;47.702;9.826;2023-08-21T09:57:03;11.37;;;10.40;;
20140;SDS011;10231;47.702;9.826;2023-08-21T09:59:29;11.60;;;10.60;;
20140;SDS011;10231;47.702;9.826;2023-08-21T10:01:56;13.10;;;11.73;;
20140;SDS011;10231;47.702;9.826;2023-08-21T10:04:25;15.70;;;11.30;;
20140;SDS011;10231;47.702;9.826;2023-08-21T10:06:52;11.60;;;10.43;;
20140;SDS011;10231;47.702;9.826;2023-08-21T10:09:21;12.10;;;11.00;;
20140;SDS011;10231;47.702;9.826;2023-08-21T10:11:48;13.10;;;10.43;;
20140;SDS011;10231;47.702;9.826;2023-08-21T10:14:14;11.70;;;10.50;;
20140;SDS011;10231;47.702;9.826;2023-08-21T10:16:40;11.70;;;10.70;;
20140;SDS011;10231;47.702;9.826;2023-08-21T10:19:06;12.87;;;10.40;;
20140;SDS011;10231;47.702;9.826;2023-08-21T10:21:37;12.13;;;11.07;;
20140;SDS011;10231;47.702;9.826;2023-08-21T10:24:02;11.70;;;10.70;;
20140;SDS011;10231;47.702;9.826;2023-08-21T10:26:28;11.93;;;10.80;;
20140;SDS011;10231;47.702;9.826;2023-08-21T10:28:55;12.07;;;10.83;;
20140;SDS011;10231;47.702;9.826;2023-08-21T10:34:07;11.97;;;10.80;;
20140;SDS011;10231;47.702;9.826;2023-08-21T10:39:18;12.50;;;11.50;;
20140;SDS011;10231;47.702;9.826;2023-08-21T10:41:56;11.53;;;10.43;;
20140;SDS011;10231;47.702;9.826;2023-08-21T10:49:53;11.70;;;10.57;;
20140;SDS011;10231;47.702;9.826;2023-08-21T10:52:24;12.93;;;10.87;;
20140;SDS011;10231;47.702;9.826;2023-08-21T10:55:03;10.77;;;9.67;;
20140;SDS011;10231;47.702;9.826;2023-08-21T10:57:29;12.10;;;10.87;;
20140;SDS011;10231;47.702;9.826;2023-08-21T10:59:59;11.97;;;10.97;;
20140;SDS011;10231;47.702;9.826;2023-08-21T11:02:30;12.47;;;11.27;;
20140;SDS011;10231;47.702;9.826;2023-08-21T11:04:57;11.77;;;10.67;;
20140;SDS011;10231;47.702;9.826;2023-08-21T11:07:23;11.63;;;10.43;;
20140;SDS011;10231;47.702;9.826;2023-08-21T11:09:49;10.73;;;9.53;;
20140;SDS011;10231;47.702;9.826;2023-08-21T11:12:16;11.07;;;10.10;;
20140;SDS011;10231;47.702;9.826;2023-08-21T11:14:43;10.87;;;9.90;;
20140;SDS011;10231;47.702;9.826;2023-08-21T11:17:09;10.57;;;9.50;;
20140;SDS011;10231;47.702;9.826;2023-08-21T11:19:37;12.30;;;9.17;;
20140;SDS011;10231;47.702;9.826;2023-08-21T11:22:03;11.20;;;9.23;;
20140;SDS011;10231;47.702;9.826;2023-08-21T11:24:36;9.17;;;8.27;;
20140;SDS011;10231;47.702;9.826;2023-08-21T11:27:08;9.77;;;7.90;;
20140;SDS011;10231;47.702;9.826;2023-08-21T11:29:42;9.03;;;8.23;;
20140;SDS011;10231;47.702;9.826;2023-08-21T11:32:10;10.67;;;8.50;;
20140;SDS011;10231;47.702;9.826;2023-08-21T11:34:40;9.97;;;9.07;;
20140;SDS011;10231;47.702;9.826;2023-08-21T11:37:13;9.53;;;8.57;;
20140;SDS011;10231;47.702;9.826;2023-08-21T11:39:48;9.93;;;9.03;;
20140;SDS011;10231;47.702;9.826;2023-08-21T11:42:19;9.17;;;8.23;;
20140;SDS011;10231;47.702;9.826;2023-08-21T11:44:51;9.13;;;8.27;;
20140;SDS011;10231;47.702;9.826;2023-08-21T11:47:18;9.30;;;8.50;;
20140;SDS011;10231;47.702;9.826;2023-08-21T11:49:45;11.13;;;8.90;;
20140;SDS011;10231;47.702;9.826;2023-08-21T11:52:17;9.80;;;8.23;;
20140;SDS011;10231;47.702;9.826;2023-08-21T11:54:47;10.03;;;8.90;;
20140;SDS011;10231;47.702;9.826;2023-08-21T11:57:14;13.17;;;8.50;;
20140;SDS011;10231;47.702;9.826;2023-08-21T11:59:40;8.63;;;7.83;;
20140;SDS011;10231;47.702;9.826;2023-08-21T12:02:09;9.93;;;7.63;;
20140;SDS011;10231;47.702;9.826;2023-08-21T12:04:39;8.57;;;7.77;;
20140;SDS011;10231;47.702;9.826;2023-08-21T12:07:05;8.60;;;7.60;;
20140;SDS011;10231;47.702;9.826;2023-08-21T12:09:31;9.00;;;8.10;;
20140;SDS011;10231;47.702;9.826;2023-08-21T12:11:56;10.03;;;7.83;;
20140;SDS011;10231;47.702;9.826;2023-08-21T12:14:22;9.37;;;8.40;;
20140;SDS011;10231;47.702;9.826;2023-08-21T12:16:48;9.33;;;8.43;;
20140;SDS011;10231;47.702;9.826;2023-08-21T12:19:13;10.57;;;8.27;;
20140;SDS011;10231;47.702;9.826;2023-08-21T12:21:39;8.47;;;7.57;;
20140;SDS011;10231;47.702;9.826;2023-08-21T12:24:05;8.17;;;7.43;;
20140;SDS011;10231;47.702;9.826;2023-08-21T12:26:34;7.97;;;7.27;;
20140;SDS011;10231;47.702;9.826;2023-08-21T12:29:00;7.83;;;7.13;;
20140;SDS011;10231;47.702;9.826;2023-08-21T12:31:26;8.83;;;7.87;;
20140;SDS011;10231;47.702;9.826;2023-08-21T12:33:51;8.73;;;7.73;;
20140;SDS011;10231;47.702;9.826;2023-08-21T12:36:17;8.37;;;7.60;;
20140;SDS011;10231;47.702;9.826;2023-08-21T12:38:42;8.80;;;7.93;;
20140;SDS011;10231;47.702;9.826;2023-08-21T12:41:08;10.17;;;7.80;;
20140;SDS011;10231;47.702;9.826;2023-08-21T12:43:33;8.87;;;7.97;;
20140;SDS011;10231;47.702;9.826;2023-08-21T12:45:59;9.30;;;7.97;;
20140;SDS011;10231;47.702;9.826;2023-08-21T12:48:24;8.90;;;7.97;;
20140;SDS011;10231;47.702;9.826;2023-08-21T12:50:50;9.53;;;7.47;;
20140;SDS011;10231;47.702;9.826;2023-08-21T12:53:16;7.57;;;6.80;;
20140;SDS011;10231;47.702;9.826;2023-08-21T12:55:41;7.10;;;6.47;;
20140;SDS011;10231;47.702;9.826;2023-08-21T12:58:07;6.93;;;5.90;;
20140;SDS011;10231;47.702;9.826;2023-08-21T13:00:33;7.03;;;6.43;;
20140;SDS011;10231;47.702;9.826;2023-08-21T13:02:59;6.67;;;6.07;;
20140;SDS011;10231;47.702;9.826;2023-08-21T13:05:24;6.53;;;5.93;;
20140;SDS011;10231;47.702;9.826;2023-08-21T13:07:50;9.77;;;7.00;;
20140;SDS011;10231;47.702;9.826;2023-08-21T13:10:16;5.27;;;4.77;;
20140;SDS011;10231;47.702;9.826;2023-08-21T13:12:41;10.13;;;5.27;;
20140;SDS011;10231;47.702;9.826;2023-08-21T13:15:07;6.80;;;5.20;;
20140;SDS011;10231;47.702;9.826;2023-08-21T13:17:33;6.43;;;5.37;;
20140;SDS011;10231;47.702;9.826;2023-08-21T13:19:59;6.53;;;5.67;;
20140;SDS011;10231;47.702;9.826;2023-08-21T13:22:25;7.30;;;6.00;;
20140;SDS011;10231;47.702;9.826;2023-08-21T13:24:50;5.87;;;5.37;;
20140;SDS011;10231;47.702;9.826;2023-08-21T13:27:16;7.10;;;5.60;;
20140;SDS011;10231;47.702;9.826;2023-08-21T13:29:41;10.47;;;5.43;;
20140;SDS011;10231;47.702;9.826;2023-08-21T13:32:07;7.63;;;4.97;;
20140;SDS011;10231;47.702;9.826;2023-08-21T13:34:33;6.40;;;5.00;;
20140;SDS011;10231;47.702;9.826;2023-08-21T13:36:58;7.80;;;4.93;;
20140;SDS011;10231;47.702;9.826;2023-08-21T13:39:24;5.33;;;4.70;;
20140;SDS011;10231;47.702;9.826;2023-08-21T13:41:51;7.33;;;4.87;;
20140;SDS011;10231;47.702;9.826;2023-08-21T13:44:17;6.57;;;5.60;;
20140;SDS011;10231;47.702;9.826;2023-08-21T13:46:42;9.33;;;5.40;;
20140;SDS011;10231;47.702;9.826;2023-08-21T13:49:08;5.77;;;5.27;;
20140;SDS011;10231;47.702;9.826;2023-08-21T13:51:34;5.57;;;4.87;;
20140;SDS011;10231;47.702;9.826;2023-08-21T13:54:00;7.50;;;5.30;;
20140;SDS011;10231;47.702;9.826;2023-08-21T13:56:25;11.57;;;4.88;;
20140;SDS011;10231;47.702;9.826;2023-08-21T13:58:51;7.28;;;4.68;;
20140;SDS011;10231;47.702;9.826;2023-08-21T14:01:16;6.32;;;4.63;;
20140;SDS011;10231;47.702;9.826;2023-08-21T14:03:42;5.05;;;4.60;;
20140;SDS011;10231;47.702;9.826;2023-08-21T14:06:07;5.65;;;4.25;;
20140;SDS011;10231;47.702;9.826;2023-08-21T14:08:36;7.28;;;5.63;;
20140;SDS011;10231;47.702;9.826;2023-08-21T14:11:02;5.50;;;5.00;;
20140;SDS011;10231;47.702;9.826;2023-08-21T14:13:28;5.78;;;5.03;;
20140;SDS011;10231;47.702;9.826;2023-08-21T14:15:53;7.10;;;4.72;;
20140;SDS011;10231;47.702;9.826;2023-08-21T14:18:19;4.90;;;4.45;;
20140;SDS011;10231;47.702;9.826;2023-08-21T14:20:45;5.13;;;4.72;;
20140;SDS011;10231;47.702;9.826;2023-08-21T14:23:10;7.85;;;4.97;;
20140;SDS011;10231;47.702;9.826;2023-08-21T14:25:36;4.95;;;4.45;;
20140;SDS011;10231;47.702;9.826;2023-08-21T14:28:02;6.30;;;4.80;;
20140;SDS011;10231;47.702;9.826;2023-08-21T14:30:28;5.32;;;4.82;;
20140;SDS011;10231;47.702;9.826;2023-08-21T14:32:54;4.82;;;4.43;;
20140;SDS011;10231;47.702;9.826;2023-08-21T14:35:20;5.18;;;4.72;;
20140;SDS011;10231;47.702;9.826;2023-08-21T14:37:46;5.45;;;4.95;;
20140;SDS011;10231;47.702;9.826;2023-08-21T14:40:12;6.45;;;4.80;;
20140;SDS011;10231;47.702;9.826;2023-08-21T14:42:38;5.53;;;4.57;;
20140;SDS011;10231;47.702;9.826;2023-08-21T14:45:03;5.22;;;4.72;;
20140;SDS011;10231;47.702;9.826;2023-08-21T14:47:29;5.75;;;4.43;;
20140;SDS011;10231;47.702;9.826;2023-08-21T14:49:56;7.95;;;4.47;;
20140;SDS011;10231;47.702;9.826;2023-08-21T14:52:22;4.93;;;4.07;;
20140;SDS011;10231;47.702;9.826;2023-08-21T14:54:50;5.10;;;4.28;;
20140;SDS011;10231;47.702;9.826;2023-08-21T14:57:16;8.13;;;4.28;;